Time;durP1;ratioP1;P1;durP2;ratioP2;P2;SDS_P1;SDS_P2;PMS_P1;PMS_P2;Temp;Humidity;BMP_temperature;BMP_pressure;BME280_temperature;BME280_humidity;BME280_pressure;Samples;Min_cycle;Max_cycle;Signal;HPM_P1;HPM_P2
2022/06/30 00:01:22;;;;;;;6.95;2.90;;;20.50;99.90;;;;;;2621109;47;20090;31
2022/06/30 00:04:01;;;;;;;6.63;4.30;;;20.50;99.90;;;;;;2602649;54;20855;31
2022/06/30 00:06:38;;;;;;;7.60;3.20;;;20.40;99.90;;;;;;2603136;54;20030;31
2022/06/30 00:09:14;;;;;;;8.00;3.40;;;20.30;99.90;;;;;;2611821;46;20780;31
2022/06/30 00:11:48;;;;;;;;;;;20.30;99.90;;;;;;2621806;46;20904;31
2022/06/30 00:14:30;;;;;;;16.85;4.40;;;20.20;99.90;;;;;;2701950;39;21499;31
2022/06/30 00:17:09;;;;;;;8.48;3.33;;;20.30;99.90;;;;;;2602541;54;20093;31
2022/06/30 00:19:46;;;;;;;6.53;3.37;;;20.30;99.90;;;;;;2602245;54;20785;31
2022/06/30 00:22:23;;;;;;;8.50;3.17;;;20.30;99.90;;;;;;2602458;54;20268;31
2022/06/30 00:25:02;;;;;;;4.88;3.30;;;20.20;99.90;;;;;;2602390;54;20896;31
2022/06/30 00:27:40;;;;;;;5.30;3.25;;;20.20;99.90;;;;;;2602694;54;20058;31
2022/06/30 00:30:20;;;;;;;7.20;3.33;;;20.10;99.90;;;;;;2602514;54;20041;31
2022/06/30 00:32:55;;;;;;;6.82;4.30;;;20.00;99.90;;;;;;2621700;46;22392;31
2022/06/30 00:35:31;;;;;;;4.73;3.70;;;20.10;99.90;;;;;;2603417;54;20026;31
2022/06/30 00:38:06;;;;;;;4.47;3.03;;;20.10;99.90;;;;;;2603251;54;20038;31
2022/06/30 00:40:46;;;;;;;6.30;3.10;;;20.10;99.90;;;;;;2603064;54;20026;31
2022/06/30 00:43:24;;;;;;;6.50;3.90;;;20.10;99.90;;;;;;2603357;54;20052;31
2022/06/30 00:46:03;;;;;;;8.10;3.37;;;20.10;99.90;;;;;;2603269;54;20030;31
2022/06/30 00:48:41;;;;;;;5.07;3.17;;;20.20;99.90;;;;;;2603386;54;20777;31
2022/06/30 00:51:16;;;;;;;4.60;3.25;;;20.20;99.90;;;;;;2603326;54;20247;31
2022/06/30 00:53:53;;;;;;;5.40;2.65;;;20.20;99.90;;;;;;2720398;39;21681;31
2022/06/30 00:56:29;;;;;;;6.50;3.60;;;20.20;99.90;;;;;;2603236;54;20851;31
2022/06/30 00:59:07;;;;;;;4.60;2.60;;;20.20;99.90;;;;;;2603278;54;20026;31
2022/06/30 01:01:46;;;;;;;5.25;3.03;;;20.20;99.90;;;;;;2603196;54;20601;31
2022/06/30 01:04:21;;;;;;;5.88;2.83;;;20.20;99.90;;;;;;2603370;54;20763;31
2022/06/30 01:06:57;;;;;;;6.97;3.60;;;20.20;99.90;;;;;;2603245;54;20746;31
2022/06/30 01:15:23;;;;;;;7.22;3.70;;;20.20;99.90;;;;;;2621293;46;22408;31
2022/06/30 01:18:01;;;;;;;7.25;4.07;;;20.20;99.90;;;;;;2701862;39;21632;31
2022/06/30 01:20:36;;;;;;;8.68;5.10;;;20.10;99.90;;;;;;2603200;54;20031;31
2022/06/30 01:23:17;;;;;;;9.47;5.23;;;20.10;99.90;;;;;;2603225;54;20034;31
2022/06/30 01:25:53;;;;;;;12.40;5.60;;;20.10;99.90;;;;;;2602965;54;20026;31
2022/06/30 01:28:34;;;;;;;6.57;4.75;;;20.10;99.90;;;;;;2603062;54;20885;31
2022/06/30 01:31:08;;;;;;;10.60;5.00;;;20.10;99.90;;;;;;2603188;54;20100;31
2022/06/30 01:33:45;;;;;;;7.10;4.35;;;20.10;99.90;;;;;;2603262;54;20057;31
2022/06/30 01:36:27;;;;;;;6.35;4.15;;;20.10;99.90;;;;;;2603158;54;20963;31
2022/06/30 01:39:05;;;;;;;11.43;5.43;;;20.10;99.90;;;;;;2603237;54;20030;31
2022/06/30 01:41:41;;;;;;;7.05;5.03;;;20.10;99.90;;;;;;2602970;54;20046;31
2022/06/30 01:44:18;;;;;;;7.50;5.57;;;20.00;99.90;;;;;;2602358;54;20759;31
2022/06/30 01:47:01;;;;;;;7.03;4.82;;;19.90;99.90;;;;;;2603053;54;20269;31
2022/06/30 01:52:12;;;;;;;8.40;5.40;;;19.80;99.90;;;;;;2701709;39;21511;31
2022/06/30 01:55:08;;;;;;;8.40;4.93;;;19.80;99.90;;;;;;2602943;54;20861;31
2022/06/30 01:57:47;;;;;;;6.05;4.30;;;19.80;99.90;;;;;;2602989;54;20027;31
2022/06/30 02:00:23;;;;;;;7.40;3.92;;;19.70;99.90;;;;;;2603214;54;20891;31
2022/06/30 02:03:00;;;;;;;6.10;4.10;;;19.70;99.90;;;;;;2603261;54;20875;31
2022/06/30 02:05:38;;;;;;;5.25;3.70;;;19.70;99.90;;;;;;2619775;46;20081;31
2022/06/30 02:08:16;;;;;;;8.60;4.80;;;19.60;99.90;;;;;;2603171;54;20031;31
2022/06/30 02:10:51;;;;;;;5.97;4.00;;;19.60;99.90;;;;;;2621699;46;20030;31
2022/06/30 02:13:30;;;;;;;6.15;3.85;;;19.50;99.90;;;;;;2604813;46;20925;31
2022/06/30 02:16:11;;;;;;;5.83;4.63;;;19.60;99.90;;;;;;2602946;54;20033;31
2022/06/30 02:18:47;;;;;;;6.05;5.25;;;19.50;99.90;;;;;;2602968;54;20037;31
2022/06/30 02:21:23;;;;;;;7.27;5.17;;;19.40;99.90;;;;;;2772786;31;25126;31
2022/06/30 02:24:02;;;;;;;8.35;5.53;;;19.40;99.90;;;;;;2621543;46;21370;31
2022/06/30 02:26:44;;;;;;;6.05;4.65;;;19.40;99.90;;;;;;2621403;46;20038;31
2022/06/30 02:29:26;;;;;;;7.77;5.20;;;19.50;99.90;;;;;;2621200;46;20060;31
2022/06/30 02:34:37;;;;;;;5.45;4.78;;;19.40;99.90;;;;;;2603147;54;20857;31
2022/06/30 02:37:17;;;;;;;7.73;4.67;;;19.40;99.90;;;;;;2602857;54;20845;31
2022/06/30 02:39:55;;;;;;;4.60;4.10;;;19.30;99.90;;;;;;2701627;39;20516;31
2022/06/30 02:42:30;;;;;;;5.10;4.35;;;19.30;99.90;;;;;;2602958;54;20903;31
2022/06/30 02:45:15;;;;;;;5.43;4.75;;;19.30;99.90;;;;;;2619980;46;20042;31
2022/06/30 02:47:59;;;;;;;4.67;4.03;;;19.30;99.90;;;;;;2602829;54;20036;31
2022/06/30 02:50:36;;;;;;;6.50;5.50;;;19.30;99.90;;;;;;2602762;54;20140;31
2022/06/30 02:53:17;;;;;;;6.40;4.43;;;19.20;99.90;;;;;;2602969;54;20036;31
2022/06/30 02:56:07;;;;;;;7.60;4.05;;;19.20;99.90;;;;;;2613029;46;20041;31
2022/06/30 02:58:43;;;;;;;4.95;4.35;;;19.30;99.90;;;;;;2602897;54;20045;31
2022/06/30 03:01:24;;;;;;;4.95;3.35;;;19.30;99.90;;;;;;2602217;54;20033;31
2022/06/30 03:04:04;;;;;;;4.22;3.53;;;19.30;99.90;;;;;;2602823;54;20794;31
2022/06/30 03:09:21;;;;;;;4.57;4.18;;;19.30;99.90;;;;;;2602861;54;20031;31
2022/06/30 03:11:57;;;;;;;5.20;3.10;;;19.40;99.90;;;;;;2602968;54;20026;31
2022/06/30 03:14:36;;;;;;;7.43;3.95;;;19.40;99.90;;;;;;2602608;54;20120;31
2022/06/30 03:17:15;;;;;;;4.40;4.00;;;19.50;99.90;;;;;;2602778;54;20037;31
2022/06/30 03:19:53;;;;;;;4.10;3.70;;;19.50;99.90;;;;;;2602875;54;20051;31
2022/06/30 03:22:30;;;;;;;6.97;4.40;;;19.50;99.90;;;;;;2602793;54;20942;31
2022/06/30 03:25:03;;;;;;;4.22;3.80;;;19.50;99.90;;;;;;2620930;47;22410;31
2022/06/30 03:27:43;;;;;;;5.93;4.00;;;19.60;99.90;;;;;;2620788;47;20026;31
2022/06/30 03:30:22;;;;;;;4.75;3.60;;;19.60;99.90;;;;;;2602692;54;20049;31
2022/06/30 03:32:59;;;;;;;;;;;19.60;99.90;;;;;;2602175;54;20018;31
2022/06/30 03:35:40;;;;;;;3.63;3.25;;;19.70;99.90;;;;;;2621551;47;21174;31
2022/06/30 03:38:17;;;;;;;5.40;4.18;;;19.70;99.90;;;;;;2602677;54;20846;31
2022/06/30 03:40:52;;;;;;;5.57;4.45;;;19.80;99.90;;;;;;2603078;54;20948;31
2022/06/30 03:43:29;;;;;;;7.60;5.10;;;19.70;99.90;;;;;;2603122;54;20950;31
2022/06/30 03:46:09;;;;;;;3.92;3.53;;;19.80;99.90;;;;;;2622086;46;20036;31
2022/06/30 03:48:46;;;;;;;5.50;3.95;;;19.80;99.90;;;;;;2602684;54;21163;31
2022/06/30 03:51:25;;;;;;;4.40;4.00;;;19.80;99.90;;;;;;2603402;54;20887;31
2022/06/30 03:54:00;;;;;;;5.82;5.22;;;19.80;99.90;;;;;;2603474;54;20858;31
2022/06/30 03:56:38;;;;;;;4.72;4.07;;;19.80;99.90;;;;;;2602690;54;20027;31
2022/06/30 03:59:15;;;;;;;5.60;4.20;;;19.80;99.90;;;;;;2603428;54;20731;31
2022/06/30 04:01:51;;;;;;;4.85;4.45;;;19.80;99.90;;;;;;2622275;46;20235;31
2022/06/30 04:04:25;;;;;;;8.80;4.87;;;19.80;99.90;;;;;;2603296;54;21027;31
2022/06/30 04:07:03;;;;;;;6.75;6.10;;;19.80;99.90;;;;;;2622041;46;20038;31
2022/06/30 04:09:40;;;;;;;6.45;5.15;;;19.80;99.90;;;;;;2603335;54;20115;31
2022/06/30 04:12:22;;;;;;;6.70;5.40;;;19.90;99.90;;;;;;2603301;54;20095;31
2022/06/30 04:15:06;;;;;;;5.43;4.93;;;19.80;99.90;;;;;;2603295;54;20731;31
2022/06/30 04:17:46;;;;;;;8.70;4.75;;;19.90;99.90;;;;;;2603299;54;20249;31
2022/06/30 04:20:21;;;;;;;;;;;19.90;99.90;;;;;;2602745;54;20068;31
2022/06/30 04:23:03;;;;;;;4.70;3.90;;;19.90;99.90;;;;;;2603295;54;19934;31
2022/06/30 04:25:41;;;;;;;5.40;3.60;;;19.90;99.90;;;;;;2603317;54;20038;31
2022/06/30 04:28:19;;;;;;;6.07;3.78;;;20.00;99.90;;;;;;2602525;54;20853;31
2022/06/30 04:33:47;;;;;;;5.15;4.65;;;20.00;99.90;;;;;;2603581;54;20026;31
2022/06/30 04:36:25;;;;;;;6.07;4.73;;;20.00;99.90;;;;;;2622015;46;20753;31
2022/06/30 04:39:06;;;;;;;5.20;3.80;;;20.10;99.90;;;;;;2603345;54;20235;31
2022/06/30 04:41:38;;;;;;;6.82;5.05;;;20.10;99.90;;;;;;2603488;54;20100;31
2022/06/30 04:44:16;;;;;;;6.53;5.53;;;20.10;99.90;;;;;;2621199;46;20042;31
2022/06/30 04:47:05;;;;;;;5.90;5.00;;;20.10;99.90;;;;;;2603393;54;20883;31
2022/06/30 04:49:44;;;;;;;5.88;5.28;;;20.10;99.90;;;;;;2603141;54;20033;31
2022/06/30 04:52:22;;;;;;;5.05;4.30;;;20.10;99.90;;;;;;2603285;54;20030;31
2022/06/30 04:55:05;;;;;;;9.45;5.90;;;20.10;99.90;;;;;;2603281;54;20893;31
2022/06/30 04:57:46;;;;;;;5.70;5.10;;;20.30;99.90;;;;;;2621208;46;20031;31
2022/06/30 05:00:22;;;;;;;6.60;5.55;;;20.40;99.90;;;;;;2603274;54;20053;31
2022/06/30 05:02:58;;;;;;;8.93;7.05;;;20.40;99.90;;;;;;2603311;54;20947;31
2022/06/30 05:05:33;;;;;;;7.97;5.95;;;20.50;99.90;;;;;;2621559;46;20068;31
2022/06/30 05:11:09;;;;;;;6.45;5.75;;;20.80;99.90;;;;;;2602991;54;20037;31
2022/06/30 05:13:43;;;;;;;7.43;5.55;;;21.00;99.90;;;;;;2603227;54;20839;31
2022/06/30 05:16:19;;;;;;;5.57;4.72;;;21.40;99.90;;;;;;2603324;54;20794;31
2022/06/30 05:18:58;;;;;;;8.82;4.47;;;21.50;99.90;;;;;;2603059;54;20030;31
2022/06/30 05:21:37;;;;;;;5.50;5.00;;;21.60;99.90;;;;;;2603126;54;20033;31
2022/06/30 05:27:02;;;;;;;6.07;5.35;;;21.50;99.90;;;;;;2603365;54;21216;31
2022/06/30 05:29:41;;;;;;;6.90;5.30;;;21.50;99.90;;;;;;2602971;54;20928;31
2022/06/30 05:32:20;;;;;;;7.53;5.57;;;21.50;99.90;;;;;;2621010;46;20029;31
2022/06/30 05:34:59;;;;;;;6.50;5.90;;;21.60;99.90;;;;;;2621568;46;20877;31
2022/06/30 05:37:37;;;;;;;9.50;6.25;;;21.60;99.90;;;;;;2603110;54;20928;31
2022/06/30 05:42:49;;;;;;;7.22;6.53;;;21.90;99.90;;;;;;2603144;54;20026;31
2022/06/30 05:45:31;;;;;;;8.20;6.77;;;22.10;99.90;;;;;;2603001;54;20029;31
2022/06/30 05:48:13;;;;;;;7.95;7.22;;;22.30;99.90;;;;;;2603166;54;20883;31
2022/06/30 05:50:57;;;;;;;9.20;7.00;;;22.60;99.90;;;;;;2602174;54;20899;31
2022/06/30 05:53:34;;;;;;;6.85;6.15;;;23.00;99.90;;;;;;2621442;46;20030;31
2022/06/30 05:56:14;;;;;;;8.85;6.72;;;23.30;99.90;;;;;;2602981;54;20049;31
2022/06/30 05:58:50;;;;;;;7.22;6.40;;;23.60;99.90;;;;;;2602993;54;20092;31
2022/06/30 06:01:38;;;;;;;7.50;5.95;;;23.90;99.90;;;;;;2603002;54;20930;31
2022/06/30 06:04:17;;;;;;;8.10;5.90;;;23.90;99.90;;;;;;2602777;54;20030;31
2022/06/30 06:06:57;;;;;;;7.30;6.47;;;23.90;99.90;;;;;;2621400;46;20026;31
2022/06/30 06:09:35;;;;;;;8.70;6.35;;;23.60;99.90;;;;;;2602831;54;20839;31
2022/06/30 06:12:15;;;;;;;8.53;6.47;;;23.60;99.90;;;;;;2621287;46;20081;31
2022/06/30 06:14:52;;;;;;;7.72;6.10;;;23.60;99.90;;;;;;2602886;54;20809;31
2022/06/30 06:17:32;;;;;;;7.13;6.40;;;23.80;99.90;;;;;;2602191;54;20027;31
2022/06/30 06:20:11;;;;;;;10.82;5.57;;;24.00;99.90;;;;;;2603135;54;20913;31
2022/06/30 06:22:46;;;;;;;6.55;5.80;;;24.30;99.90;;;;;;2603078;54;22383;31
2022/06/30 06:25:22;;;;;;;;;;;24.60;99.90;;;;;;2617863;46;20034;31
2022/06/30 06:30:47;;;;;;;7.93;5.80;;;24.90;99.90;;;;;;2616834;46;20022;31
2022/06/30 06:33:29;;;;;;;9.80;6.30;;;25.20;99.90;;;;;;2700571;39;21476;31
2022/06/30 06:36:05;;;;;;;8.30;4.65;;;25.50;99.90;;;;;;2602872;54;20050;31
2022/06/30 06:38:42;;;;;;;6.20;5.60;;;25.70;99.90;;;;;;2602744;54;20950;31
2022/06/30 06:41:20;;;;;;;;;;;26.00;99.90;;;;;;2602325;54;20042;31
2022/06/30 06:43:55;;;;;;;8.55;4.72;;;26.10;99.90;;;;;;2602148;54;19934;31
2022/06/30 06:46:34;;;;;;;8.85;5.50;;;26.40;99.90;;;;;;2601951;54;20027;31
2022/06/30 06:49:15;;;;;;;9.10;5.50;;;26.60;99.90;;;;;;2620915;46;20898;31
2022/06/30 06:51:52;;;;;;;7.45;6.18;;;26.60;99.90;;;;;;2602633;54;20026;31
2022/06/30 06:54:31;;;;;;;10.60;5.43;;;26.70;99.90;;;;;;2602898;54;20827;31
2022/06/30 06:57:10;;;;;;;7.68;5.70;;;26.90;99.90;;;;;;2602781;54;20938;31
2022/06/30 06:59:47;;;;;;;5.57;3.87;;;27.10;99.90;;;;;;2602842;54;20937;31
2022/06/30 07:02:22;;;;;;;10.55;5.55;;;27.40;99.90;;;;;;2602611;54;20036;31
2022/06/30 07:05:07;;;;;;;8.23;5.05;;;27.60;99.90;;;;;;2602552;54;20026;31
2022/06/30 07:07:46;;;;;;;7.00;5.70;;;27.90;99.90;;;;;;2621216;47;20022;31
2022/06/30 07:10:36;;;;;;;6.60;5.00;;;27.80;99.90;;;;;;2602500;54;20023;31
2022/06/30 07:13:16;;;;;;;6.03;4.32;;;27.90;99.90;;;;;;2601955;54;20991;31
2022/06/30 07:21:55;;;;;;;5.75;4.00;;;28.30;99.90;;;;;;2602251;54;20970;31
2022/06/30 07:24:35;;;;;;;5.77;4.00;;;28.30;99.90;;;;;;2621875;46;20026;31
2022/06/30 07:27:15;;;;;;;7.65;4.43;;;28.30;99.90;;;;;;2621754;46;20026;31
2022/06/30 07:29:53;;;;;;;4.78;3.70;;;28.30;99.90;;;;;;2603394;54;20897;31
2022/06/30 07:32:29;;;;;;;5.35;3.85;;;28.40;99.90;;;;;;2603266;54;20022;31
2022/06/30 07:35:10;;;;;;;5.45;4.15;;;28.70;99.90;;;;;;2602741;54;20757;31
2022/06/30 07:46:52;;;;;;;5.70;4.93;;;29.20;99.90;;;;;;2603012;54;20793;31
2022/06/30 08:49:16;;;;;;;12.02;7.57;;;30.40;99.90;;;;;;2603030;54;20876;31
2022/06/30 08:51:52;;;;;;;8.40;6.25;;;30.60;99.90;;;;;;2602965;54;20042;31
2022/06/30 08:54:36;;;;;;;9.32;8.40;;;30.80;99.90;;;;;;2603189;54;21190;31
2022/06/30 08:57:12;;;;;;;9.70;8.90;;;30.90;99.90;;;;;;2603262;54;20723;31
2022/06/30 08:59:50;;;;;;;12.45;8.88;;;30.80;99.90;;;;;;2603233;54;20857;31
2022/06/30 09:02:26;;;;;;;10.25;8.60;;;30.80;99.90;;;;;;2621270;46;21234;31
2022/06/30 09:05:03;;;;;;;11.30;10.20;;;31.00;99.90;;;;;;2621371;46;22337;31
2022/06/30 09:07:40;;;;;;;10.73;9.63;;;31.00;99.90;;;;;;2602893;54;20281;31
2022/06/30 09:10:39;;;;;;;12.02;10.93;;;31.00;99.90;;;;;;2621596;46;20928;31
2022/06/30 09:13:17;;;;;;;11.60;10.50;;;31.20;99.90;;;;;;2602947;54;20060;31
2022/06/30 09:15:52;;;;;;;13.00;10.30;;;31.10;99.90;;;;;;2602859;54;20861;31
2022/06/30 09:18:30;;;;;;;12.45;9.90;;;31.30;99.90;;;;;;2603194;54;20023;31
2022/06/30 09:21:04;;;;;;;11.38;9.98;;;31.60;99.90;;;;;;2603144;54;20030;31
2022/06/30 09:23:43;;;;;;;;;;;31.50;99.90;;;;;;2701111;39;20411;31
2022/06/30 09:26:23;;;;;;;12.05;10.70;;;31.30;99.90;;;;;;2603024;54;20718;31
2022/06/30 09:29:01;;;;;;;10.65;9.65;;;31.40;99.90;;;;;;2621256;46;20081;31
2022/06/30 09:31:59;;;;;;;11.63;10.40;;;31.70;99.90;;;;;;2602807;54;20027;31
2022/06/30 09:34:38;;;;;;;15.85;12.07;;;31.90;99.90;;;;;;2603364;54;20034;31
2022/06/30 09:37:21;;;;;;;14.23;12.67;;;32.00;99.90;;;;;;2603013;54;20038;31
2022/06/30 09:39:59;;;;;;;15.45;13.55;;;31.90;99.90;;;;;;2621687;46;20104;31
2022/06/30 09:42:42;;;;;;;15.13;13.63;;;31.70;99.90;;;;;;2603031;54;20125;31
2022/06/30 09:45:42;;;;;;;15.17;13.67;;;31.80;99.90;;;;;;2621595;46;20355;31
2022/06/30 09:48:21;;;;;;;15.98;12.85;;;32.00;99.90;;;;;;2621401;46;20093;31
2022/06/30 09:51:03;;;;;;;14.53;13.03;;;32.30;99.90;;;;;;2603168;54;20034;31
2022/06/30 09:53:44;;;;;;;15.90;13.27;;;32.40;99.90;;;;;;2603097;54;20076;31
2022/06/30 09:56:25;;;;;;;14.52;13.02;;;32.30;99.90;;;;;;2602303;54;20060;31
2022/06/30 09:59:02;;;;;;;14.68;13.25;;;32.30;99.90;;;;;;2603280;54;20892;31
2022/06/30 10:01:53;;;;;;;13.30;12.00;;;32.30;99.90;;;;;;2603234;54;20861;31
2022/06/30 10:04:33;;;;;;;13.60;10.68;;;32.50;99.90;;;;;;2602841;54;20038;31
2022/06/30 10:09:47;;;;;;;13.87;11.20;;;32.70;99.90;;;;;;2603196;54;20030;31
2022/06/30 10:12:27;;;;;;;12.82;11.63;;;32.80;99.90;;;;;;2621499;46;20964;31
2022/06/30 10:15:03;;;;;;;12.13;11.00;;;32.80;99.90;;;;;;2602876;54;20076;31
2022/06/30 10:17:40;;;;;;;13.60;12.20;;;32.90;99.90;;;;;;2621299;46;20860;31
2022/06/30 10:20:18;;;;;;;11.90;10.90;;;33.00;99.90;;;;;;2603121;54;20734;31
2022/06/30 10:25:30;;;;;;;10.05;8.90;;;33.20;99.90;;;;;;2603020;54;20934;31
2022/06/30 10:28:08;;;;;;;13.90;10.63;;;33.30;99.90;;;;;;2603024;54;20056;31
2022/06/30 10:30:47;;;;;;;10.68;9.57;;;33.30;99.90;;;;;;2602987;54;20634;31
2022/06/30 10:33:26;;;;;;;11.53;10.50;;;33.40;99.90;;;;;;2603149;54;20891;31
2022/06/30 10:36:08;;;;;;;11.40;10.35;;;33.30;99.90;;;;;;2603044;54;20034;31
2022/06/30 10:38:46;;;;;;;9.80;8.90;;;33.20;99.90;;;;;;2602802;54;20049;31
2022/06/30 10:41:27;;;;;;;11.15;9.10;;;33.10;99.90;;;;;;2621046;46;20031;31
2022/06/30 10:44:17;;;;;;;9.50;8.55;;;33.10;99.90;;;;;;2603141;54;20034;31
2022/06/30 10:47:07;;;;;;;8.45;7.65;;;33.10;99.90;;;;;;2603028;54;20727;31
2022/06/30 10:49:58;;;;;;;10.30;9.30;;;33.20;99.90;;;;;;2602821;54;20108;31
2022/06/30 10:52:47;;;;;;;10.23;9.02;;;33.20;99.90;;;;;;2603029;54;20030;31
2022/06/30 10:55:23;;;;;;;9.70;8.30;;;33.30;99.90;;;;;;2621430;46;20026;31
2022/06/30 10:58:01;;;;;;;9.63;7.55;;;33.40;99.90;;;;;;2620989;46;20910;31
2022/06/30 11:01:03;;;;;;;10.25;8.70;;;33.40;99.90;;;;;;2621240;46;20861;31
2022/06/30 11:03:38;;;;;;;9.80;8.45;;;33.30;99.90;;;;;;2603064;54;20905;31
2022/06/30 11:06:16;;;;;;;9.48;8.57;;;33.10;99.90;;;;;;2621029;46;20731;31
2022/06/30 11:08:57;;;;;;;10.55;9.15;;;32.90;99.90;;;;;;2602841;54;20030;31
2022/06/30 11:11:44;;;;;;;10.52;9.18;;;32.90;99.90;;;;;;2602807;54;21141;31
2022/06/30 11:14:25;;;;;;;10.00;9.00;;;33.00;99.90;;;;;;2621350;47;20034;31
2022/06/30 11:17:05;;;;;;;8.55;7.70;;;32.90;99.90;;;;;;2603138;54;20030;31
2022/06/30 11:19:41;;;;;;;9.30;8.40;;;32.90;99.90;;;;;;2603108;54;20880;31
2022/06/30 11:22:17;;;;;;;11.70;7.40;;;32.90;99.90;;;;;;2621555;47;20030;31
2022/06/30 11:24:55;;;;;;;9.65;8.65;;;32.80;99.90;;;;;;2621222;47;20035;31
2022/06/30 11:27:29;;;;;;;8.40;7.60;;;32.70;99.90;;;;;;2602359;54;20753;31
2022/06/30 11:30:06;;;;;;;8.82;7.13;;;32.60;99.90;;;;;;2620184;47;20026;31
2022/06/30 11:32:44;;;;;;;8.50;7.70;;;32.70;99.90;;;;;;2602829;54;20030;31
2022/06/30 11:35:27;;;;;;;8.15;7.28;;;32.80;99.90;;;;;;2602650;54;20089;31
2022/06/30 11:38:05;;;;;;;8.73;7.85;;;32.90;99.90;;;;;;2621458;47;20529;31
2022/06/30 11:40:41;;;;;;;7.95;7.20;;;32.90;99.90;;;;;;2603022;54;20033;31
2022/06/30 11:43:25;;;;;;;7.45;6.85;;;32.90;99.90;;;;;;2602901;54;20715;31
2022/06/30 11:46:12;;;;;;;7.60;6.80;;;33.00;99.90;;;;;;2602914;54;20723;31
2022/06/30 11:48:51;;;;;;;8.45;6.88;;;32.90;99.90;;;;;;2602952;54;20772;31
2022/06/30 11:51:29;;;;;;;13.00;7.60;;;33.10;99.90;;;;;;2602790;54;20879;31
2022/06/30 11:54:04;;;;;;;7.20;6.50;;;33.00;99.90;;;;;;2602565;54;20026;31
2022/06/30 11:56:49;;;;;;;8.10;7.32;;;33.10;99.90;;;;;;2603017;54;20030;31
2022/06/30 11:59:27;;;;;;;8.15;7.20;;;33.10;99.90;;;;;;2621127;47;20846;31
2022/06/30 12:02:01;;;;;;;7.57;6.88;;;33.10;99.90;;;;;;2603487;54;20909;31
2022/06/30 12:04:45;;;;;;;7.25;6.55;;;33.10;99.90;;;;;;2603574;54;20026;31
2022/06/30 12:07:21;;;;;;;7.70;6.03;;;33.20;99.90;;;;;;2603524;54;20027;31
2022/06/30 12:09:59;;;;;;;9.65;7.45;;;33.20;99.90;;;;;;2603742;54;20034;31
2022/06/30 12:12:35;;;;;;;7.57;6.78;;;33.10;99.90;;;;;;2622339;46;20823;31
2022/06/30 12:15:13;;;;;;;8.70;6.72;;;33.20;99.90;;;;;;2603626;54;20026;31
2022/06/30 12:17:48;;;;;;;7.00;6.30;;;33.20;99.90;;;;;;2603755;54;20027;31
2022/06/30 12:20:26;;;;;;;7.10;6.40;;;33.10;99.90;;;;;;2602905;54;20614;31
2022/06/30 12:23:03;;;;;;;7.25;6.55;;;33.20;99.90;;;;;;2622012;46;20101;31
2022/06/30 12:25:38;;;;;;;7.85;6.93;;;33.00;99.90;;;;;;2603273;54;20035;31
2022/06/30 12:28:14;;;;;;;7.80;7.10;;;32.90;99.90;;;;;;2603729;54;20777;31
2022/06/30 12:30:52;;;;;;;11.03;6.40;;;32.80;99.90;;;;;;2603462;54;20153;31
2022/06/30 12:33:38;;;;;;;7.22;6.43;;;32.80;99.90;;;;;;2603334;54;20038;31
2022/06/30 12:36:25;;;;;;;7.78;5.25;;;32.90;99.90;;;;;;2621272;46;20034;31
2022/06/30 12:39:01;;;;;;;13.93;8.47;;;33.00;99.90;;;;;;2603417;54;20038;31
2022/06/30 12:41:39;;;;;;;5.90;5.40;;;33.10;99.90;;;;;;2616869;46;20027;31
2022/06/30 12:44:15;;;;;;;7.15;5.05;;;33.10;99.80;;;;;;2603377;54;20038;31
2022/06/30 12:46:53;;;;;;;5.40;4.90;;;33.10;98.80;;;;;;2621987;46;20061;31
2022/06/30 12:49:29;;;;;;;5.63;5.13;;;33.20;98.30;;;;;;2603461;54;20033;31
2022/06/30 12:52:15;;;;;;;5.88;5.18;;;33.10;98.20;;;;;;2603620;54;20022;31
2022/06/30 12:54:56;;;;;;;6.07;5.50;;;33.00;97.40;;;;;;2622065;46;20030;31
2022/06/30 12:57:29;;;;;;;7.80;7.00;;;33.00;99.90;;;;;;2621856;46;22623;31
2022/06/30 13:00:05;;;;;;;8.60;7.10;;;32.90;98.90;;;;;;2789215;31;22501;31
2022/06/30 13:02:42;;;;;;;11.15;6.53;;;32.90;99.40;;;;;;2603368;54;20965;31
2022/06/30 13:05:20;;;;;;;6.90;6.20;;;32.90;99.90;;;;;;2603351;54;20027;31
2022/06/30 13:13:24;;;;;;;7.00;6.10;;;32.70;99.30;;;;;;2603120;54;20144;31
2022/06/30 13:15:59;;;;;;;6.55;5.72;;;32.70;99.30;;;;;;2602663;54;20063;31
2022/06/30 13:18:38;;;;;;;6.07;5.10;;;32.70;99.40;;;;;;2602785;54;20768;31
2022/06/30 13:21:20;;;;;;;5.82;5.10;;;32.70;99.10;;;;;;2602421;54;21715;31
2022/06/30 13:23:57;;;;;;;4.95;4.40;;;32.80;99.90;;;;;;2603227;54;20774;31
2022/06/30 13:26:36;;;;;;;7.10;5.10;;;32.80;99.10;;;;;;2603686;54;20882;31
2022/06/30 13:29:11;;;;;;;6.33;4.87;;;32.90;99.00;;;;;;2621755;46;20092;31
2022/06/30 13:31:46;;;;;;;;;;;32.80;98.60;;;;;;2603324;54;20866;31
2022/06/30 13:34:21;;;;;;;6.28;5.18;;;32.80;97.80;;;;;;2603193;54;19935;31
2022/06/30 13:36:56;;;;;;;5.67;4.60;;;32.80;97.80;;;;;;2603296;54;20026;31
2022/06/30 13:39:34;;;;;;;8.60;5.18;;;32.80;97.90;;;;;;2602819;54;20026;31
2022/06/30 13:42:13;;;;;;;4.60;4.20;;;32.70;98.30;;;;;;2603066;54;20104;31
2022/06/30 13:44:48;;;;;;;4.60;4.20;;;32.70;97.50;;;;;;2603154;54;20038;31
2022/06/30 13:47:23;;;;;;;;;;;32.80;97.80;;;;;;2603381;54;20034;31
2022/06/30 13:49:58;;;;;;;4.60;4.20;;;32.80;97.70;;;;;;2603328;54;19934;31
2022/06/30 13:52:34;;;;;;;7.88;4.55;;;32.80;96.80;;;;;;2603141;54;21738;31
2022/06/30 13:55:10;;;;;;;5.60;4.22;;;32.90;97.70;;;;;;2603588;54;20035;31
2022/06/30 13:57:49;;;;;;;5.10;4.07;;;32.90;98.60;;;;;;2603116;54;20027;31
2022/06/30 14:00:27;;;;;;;7.70;4.05;;;32.90;98.10;;;;;;2603374;54;20037;31
2022/06/30 14:03:02;;;;;;;7.65;4.50;;;32.90;97.00;;;;;;2602378;54;20038;31
2022/06/30 14:05:38;;;;;;;5.20;4.40;;;32.90;96.30;;;;;;2602529;54;20769;31
2022/06/30 14:08:13;;;;;;;5.53;5.03;;;33.00;96.90;;;;;;2602455;54;20055;31
2022/06/30 14:10:50;;;;;;;7.10;4.80;;;32.90;96.90;;;;;;2602798;54;20382;31
2022/06/30 14:13:29;;;;;;;7.65;4.90;;;32.90;96.30;;;;;;2701476;39;21623;31
2022/06/30 14:16:06;;;;;;;5.10;4.65;;;32.80;96.20;;;;;;2603338;54;20022;31
2022/06/30 14:18:39;;;;;;;6.15;5.25;;;32.80;95.90;;;;;;2614630;46;21303;31
2022/06/30 14:21:15;;;;;;;5.32;4.82;;;32.70;95.60;;;;;;2602361;54;20030;31
2022/06/30 14:23:50;;;;;;;7.90;5.38;;;32.70;96.10;;;;;;2700686;39;21680;31
2022/06/30 14:26:27;;;;;;;6.40;5.28;;;32.70;96.80;;;;;;2603313;54;20034;31
2022/06/30 14:29:05;;;;;;;5.57;4.93;;;32.70;97.10;;;;;;2603389;54;20037;31
2022/06/30 14:31:42;;;;;;;5.95;5.35;;;32.70;95.90;;;;;;2602244;54;20023;31
2022/06/30 14:34:18;;;;;;;4.90;4.40;;;32.60;96.60;;;;;;2621314;46;20749;31
2022/06/30 14:36:53;;;;;;;5.20;4.70;;;32.60;97.10;;;;;;2621563;46;20038;31
2022/06/30 14:39:30;;;;;;;5.93;4.90;;;32.70;98.40;;;;;;2603055;54;20030;31
2022/06/30 14:44:59;;;;;;;5.10;4.60;;;32.70;97.00;;;;;;2621837;46;20111;31
2022/06/30 14:47:33;;;;;;;5.95;4.75;;;32.70;97.00;;;;;;2603254;54;20916;31
2022/06/30 14:50:10;;;;;;;5.00;4.43;;;32.70;97.20;;;;;;2603137;54;20854;31
2022/06/30 14:52:46;;;;;;;7.05;5.22;;;32.80;96.80;;;;;;2603089;54;20034;31
2022/06/30 14:55:24;;;;;;;5.65;5.00;;;32.70;97.20;;;;;;2621446;46;20027;31
2022/06/30 14:58:03;;;;;;;6.00;4.90;;;32.70;97.60;;;;;;2602912;54;20081;31
2022/06/30 15:00:38;;;;;;;6.55;4.57;;;32.80;96.40;;;;;;2603161;54;20896;31
2022/06/30 15:03:15;;;;;;;;;;;32.80;97.30;;;;;;2602709;54;20632;31
2022/06/30 15:05:51;;;;;;;6.40;5.43;;;32.80;96.40;;;;;;2602161;54;20752;31
2022/06/30 15:08:26;;;;;;;5.22;4.68;;;32.70;98.20;;;;;;2603107;54;20026;31
2022/06/30 15:11:02;;;;;;;6.15;5.13;;;32.70;97.50;;;;;;2607170;47;20609;31
2022/06/30 15:13:38;;;;;;;5.53;4.95;;;32.60;96.90;;;;;;2602994;54;20038;31
2022/06/30 15:16:12;;;;;;;8.90;4.15;;;32.70;97.60;;;;;;2603103;54;20850;31
2022/06/30 15:18:50;;;;;;;6.10;4.78;;;32.70;97.60;;;;;;2602911;54;20049;31
2022/06/30 15:24:14;;;;;;;6.80;4.50;;;32.70;97.40;;;;;;2619705;47;20108;31
2022/06/30 15:26:57;;;;;;;6.05;4.53;;;32.80;97.30;;;;;;2603000;54;20911;31
2022/06/30 15:29:35;;;;;;;6.80;4.60;;;32.80;96.50;;;;;;2602694;54;20034;31
2022/06/30 15:32:16;;;;;;;5.30;4.80;;;32.70;96.70;;;;;;2602993;54;20891;31
2022/06/30 15:34:55;;;;;;;5.70;5.10;;;32.70;96.50;;;;;;2621166;47;20863;31
2022/06/30 15:37:38;;;;;;;5.00;4.53;;;32.80;96.20;;;;;;2603757;54;20046;31
2022/06/30 15:40:19;;;;;;;5.10;4.60;;;32.80;95.90;;;;;;2603550;54;20033;31
2022/06/30 15:42:55;;;;;;;6.43;4.95;;;32.70;95.70;;;;;;2622298;46;20966;31
2022/06/30 15:45:31;;;;;;;6.97;4.20;;;32.80;96.80;;;;;;2622183;46;20108;31
2022/06/30 15:48:09;;;;;;;5.47;4.93;;;32.80;96.50;;;;;;2602791;54;20131;31
2022/06/30 15:50:47;;;;;;;5.07;4.57;;;32.80;96.40;;;;;;2603828;54;20038;31
2022/06/30 15:53:24;;;;;;;5.15;4.65;;;32.80;96.20;;;;;;2603021;54;20030;31
2022/06/30 15:55:59;;;;;;;7.05;5.50;;;32.70;96.20;;;;;;2602931;54;20037;31